createdAt,value
2023-03-03T00:01:53.118Z,74.14
2023-03-03T00:04:21.664Z,74.18
2023-03-03T00:06:50.168Z,74.14
2023-03-03T00:09:18.570Z,74.83
2023-03-03T00:11:56.459Z,74.77
2023-03-03T00:14:34.393Z,75.14
2023-03-03T00:17:19.504Z,75.10
2023-03-03T00:19:49.051Z,75.03
2023-03-03T00:22:38.422Z,75.48
2023-03-03T00:25:25.526Z,75.71
2023-03-03T00:27:54.119Z,75.92
2023-03-03T00:30:27.700Z,75.93
2023-03-03T00:32:56.419Z,76.28
2023-03-03T00:35:36.052Z,76.04
2023-03-03T00:38:35.019Z,75.74
2023-03-03T00:41:11.749Z,75.57
2023-03-03T00:43:41.458Z,75.59
2023-03-03T00:46:10.436Z,75.60
2023-03-03T00:48:38.859Z,75.78
2023-03-03T00:51:28.115Z,75.96
2023-03-03T00:53:57.896Z,75.79
2023-03-03T00:56:27.893Z,75.83
2023-03-03T00:58:56.572Z,76.05
2023-03-03T01:01:25.942Z,75.76
2023-03-03T01:03:55.212Z,76.03
2023-03-03T01:06:23.849Z,76.06
2023-03-03T01:08:52.504Z,75.86
2023-03-03T01:11:25.078Z,75.92
2023-03-03T01:13:53.969Z,75.67
2023-03-03T01:16:22.497Z,75.71
2023-03-03T01:18:52.342Z,75.60
2023-03-03T01:21:20.762Z,75.73
2023-03-03T01:23:49.165Z,75.62
2023-03-03T01:26:17.638Z,75.48
2023-03-03T01:28:46.095Z,75.25
2023-03-03T01:31:14.619Z,75.50
2023-03-03T01:33:43.084Z,74.78
2023-03-03T01:36:11.539Z,75.15
2023-03-03T01:38:40.195Z,74.88
2023-03-03T01:41:08.660Z,74.95
2023-03-03T01:43:47.953Z,75.02
2023-03-03T01:46:52.859Z,74.81
2023-03-03T01:49:28.877Z,74.62
2023-03-03T01:52:03.997Z,74.94
2023-03-03T01:54:43.420Z,74.65
2023-03-03T01:57:16.645Z,75.17
2023-03-03T01:59:49.251Z,75.07
2023-03-03T02:02:19.131Z,74.79
2023-03-03T02:04:47.860Z,74.93
2023-03-03T02:07:19.435Z,75.00
2023-03-03T02:10:07.658Z,74.73
2023-03-03T02:12:41.546Z,74.91
2023-03-03T02:15:36.188Z,74.53
2023-03-03T02:18:14.494Z,74.97
2023-03-03T02:21:05.944Z,75.14
2023-03-03T02:23:48.120Z,75.37
2023-03-03T02:26:22.989Z,75.16
2023-03-03T02:28:53.234Z,75.18
2023-03-03T02:31:25.170Z,75.00
2023-03-03T02:33:56.389Z,74.81
2023-03-03T02:36:31.459Z,74.97
2023-03-03T02:39:30.277Z,75.05
2023-03-03T02:42:20.176Z,75.08
2023-03-03T02:44:52.012Z,75.17
2023-03-03T02:47:20.463Z,75.55
2023-03-03T02:49:49.042Z,75.44
2023-03-03T02:52:19.230Z,75.22
2023-03-03T02:54:48.486Z,75.46
2023-03-03T02:57:16.838Z,75.45
2023-03-03T02:59:45.268Z,75.19
2023-03-03T03:02:15.464Z,75.32
2023-03-03T03:04:43.807Z,75.55
2023-03-03T03:07:13.036Z,75.34
2023-03-03T03:09:41.471Z,75.32
2023-03-03T03:12:11.519Z,75.53
2023-03-03T03:14:39.988Z,75.53
2023-03-03T03:17:08.702Z,75.14
2023-03-03T03:19:37.090Z,75.44
2023-03-03T03:22:05.988Z,74.98
2023-03-03T03:24:35.978Z,74.96
2023-03-03T03:27:06.641Z,75.41
2023-03-03T03:29:35.845Z,75.25
2023-03-03T03:32:05.785Z,76.00
2023-03-03T03:34:34.208Z,75.89
2023-03-03T03:37:02.661Z,75.59
2023-03-03T03:39:31.251Z,75.61
2023-03-03T03:41:59.701Z,75.57
2023-03-03T03:44:28.103Z,75.81
2023-03-03T03:46:56.583Z,75.73
2023-03-03T03:49:25.122Z,75.43
2023-03-03T03:51:54.018Z,75.33
2023-03-03T03:54:24.226Z,75.61
2023-03-03T03:56:54.716Z,75.42
2023-03-03T03:59:23.927Z,75.37
2023-03-03T04:01:53.229Z,75.37
2023-03-03T04:04:22.073Z,75.31
2023-03-03T04:06:50.884Z,75.85
2023-03-03T04:09:19.401Z,75.61
2023-03-03T04:11:48.175Z,75.54
2023-03-03T04:14:16.858Z,75.64
2023-03-03T04:16:45.456Z,75.34
2023-03-03T04:19:14.025Z,75.58
2023-03-03T04:21:43.465Z,75.70
2023-03-03T04:24:12.236Z,75.38
2023-03-03T04:26:40.916Z,75.40
2023-03-03T04:29:09.795Z,75.43
2023-03-03T04:31:38.853Z,75.57
2023-03-03T04:34:07.804Z,75.64
2023-03-03T04:36:36.817Z,75.73
2023-03-03T04:39:05.675Z,75.85
2023-03-03T04:41:34.082Z,76.07
2023-03-03T04:44:02.854Z,75.81
2023-03-03T04:46:31.493Z,76.00
2023-03-03T04:49:00.216Z,76.19
2023-03-03T04:51:28.989Z,76.21
2023-03-03T04:53:57.884Z,76.01
2023-03-03T04:56:26.780Z,75.95
2023-03-03T04:58:55.399Z,76.32
2023-03-03T05:01:24.012Z,75.88
2023-03-03T05:03:52.535Z,75.80
2023-03-03T05:06:21.022Z,75.83
2023-03-03T05:08:49.392Z,75.38
2023-03-03T05:11:17.709Z,75.82
2023-03-03T05:13:46.302Z,75.78
2023-03-03T05:16:14.898Z,75.76
2023-03-03T05:18:43.296Z,75.65
2023-03-03T05:21:12.566Z,75.98
2023-03-03T05:23:41.023Z,75.75
2023-03-03T05:26:09.463Z,76.11
2023-03-03T05:28:37.823Z,76.04
2023-03-03T05:31:06.265Z,76.02
2023-03-03T05:33:34.651Z,75.85
2023-03-03T05:36:02.934Z,76.19
2023-03-03T05:38:31.291Z,75.96
2023-03-03T05:40:59.723Z,76.37
2023-03-03T05:43:28.593Z,76.28
2023-03-03T05:45:58.537Z,76.10
2023-03-03T05:48:27.778Z,76.22
2023-03-03T05:50:59.983Z,76.08
2023-03-03T05:53:29.383Z,76.77
2023-03-03T05:55:58.222Z,76.36
2023-03-03T05:58:27.353Z,76.25
2023-03-03T06:00:55.697Z,76.09
2023-03-03T06:03:24.099Z,76.14
2023-03-03T06:05:52.436Z,75.74
2023-03-03T06:08:20.815Z,75.94
2023-03-03T06:10:49.503Z,75.76
2023-03-03T06:13:18.264Z,75.85
2023-03-03T06:15:46.826Z,75.92
2023-03-03T06:18:15.519Z,76.00
2023-03-03T06:20:43.812Z,75.96
2023-03-03T06:23:12.192Z,76.04
2023-03-03T06:25:40.591Z,75.89
2023-03-03T06:28:08.805Z,76.02
2023-03-03T06:30:37.200Z,76.28
2023-03-03T06:33:05.736Z,75.67
2023-03-03T06:35:34.087Z,75.96
2023-03-03T06:38:02.609Z,75.62
2023-03-03T06:40:31.039Z,75.52
2023-03-03T06:42:59.452Z,75.46
2023-03-03T06:45:27.816Z,75.03
2023-03-03T06:47:56.162Z,74.97
2023-03-03T06:50:24.536Z,74.92
2023-03-03T06:53:08.087Z,74.97
2023-03-03T06:55:36.628Z,74.23
2023-03-03T06:58:18.344Z,73.98
2023-03-03T07:00:57.398Z,73.92
2023-03-03T07:03:34.774Z,73.90
2023-03-03T07:06:14.031Z,73.99
2023-03-03T07:08:42.548Z,73.80
2023-03-03T07:11:16.751Z,74.02
2023-03-03T07:13:48.981Z,73.86
2023-03-03T07:16:19.609Z,73.90
2023-03-03T07:19:05.698Z,73.41
2023-03-03T07:21:36.912Z,73.19
2023-03-03T07:24:28.182Z,73.18
2023-03-03T07:27:07.218Z,73.37
2023-03-03T07:29:41.482Z,73.19
2023-03-03T07:32:22.064Z,72.11
2023-03-03T07:34:52.559Z,71.94
2023-03-03T07:37:31.737Z,72.29
2023-03-03T07:40:00.989Z,72.33
2023-03-03T07:42:35.499Z,72.49
2023-03-03T07:45:28.517Z,72.29
2023-03-03T07:48:10.027Z,71.62
2023-03-03T07:50:41.191Z,71.36
2023-03-03T07:53:29.854Z,71.63
2023-03-03T07:55:58.251Z,70.02
2023-03-03T07:58:40.660Z,70.61
2023-03-03T08:01:42.969Z,69.92
2023-03-03T08:04:23.450Z,69.80
2023-03-03T08:06:57.515Z,70.11
2023-03-03T08:09:43.362Z,70.20
2023-03-03T08:12:28.415Z,69.84
2023-03-03T08:15:08.533Z,69.54
2023-03-03T08:17:39.537Z,69.48
2023-03-03T08:20:45.673Z,68.59
2023-03-03T08:23:16.717Z,67.53
2023-03-03T08:25:45.911Z,67.11
2023-03-03T08:28:14.920Z,67.27
2023-03-03T08:30:44.352Z,67.85
2023-03-03T08:33:14.100Z,67.44
2023-03-03T08:35:43.561Z,67.17
2023-03-03T08:38:14.720Z,65.09
2023-03-03T08:40:44.037Z,66.05
2023-03-03T08:43:17.399Z,65.88
2023-03-03T08:45:47.604Z,65.59
2023-03-03T08:48:16.729Z,65.94
2023-03-03T08:50:46.411Z,66.23
2023-03-03T08:53:15.609Z,65.84
2023-03-03T08:55:44.434Z,65.48
2023-03-03T08:58:15.474Z,64.37
2023-03-03T09:00:44.006Z,63.08
2023-03-03T09:03:12.506Z,63.08
2023-03-03T09:05:41.729Z,61.47
2023-03-03T09:08:10.994Z,61.19
2023-03-03T09:10:39.507Z,61.16
2023-03-03T09:13:14.296Z,62.49
2023-03-03T09:15:42.876Z,61.30
2023-03-03T09:18:35.874Z,59.04
2023-03-03T09:21:25.737Z,56.99
2023-03-03T09:23:59.885Z,55.80
2023-03-03T09:26:32.494Z,57.00
2023-03-03T09:29:18.933Z,55.08
2023-03-03T09:32:21.521Z,54.30
2023-03-03T09:34:50.138Z,54.46
2023-03-03T09:37:29.468Z,51.80
2023-03-03T09:39:58.679Z,50.88
2023-03-03T09:42:52.192Z,50.52
2023-03-03T09:45:27.864Z,49.75
2023-03-03T09:48:17.996Z,46.91
2023-03-03T09:50:59.737Z,42.52
2023-03-03T09:54:00.843Z,41.20
2023-03-03T09:56:45.088Z,41.28
2023-03-03T09:59:16.565Z,43.38
2023-03-03T10:01:48.232Z,43.25
2023-03-03T10:04:41.467Z,41.67
2023-03-03T10:07:12.407Z,41.64
2023-03-03T10:10:12.579Z,42.72
2023-03-03T10:12:50.610Z,40.07
2023-03-03T10:15:50.180Z,39.23
2023-03-03T10:18:25.466Z,38.74
2023-03-03T10:21:10.941Z,40.12
2023-03-03T10:23:56.903Z,39.27
2023-03-03T10:26:45.181Z,38.46
2023-03-03T10:29:30.390Z,39.03
2023-03-03T10:32:26.223Z,38.51
2023-03-03T10:35:06.064Z,36.78
2023-03-03T10:37:57.654Z,37.52
2023-03-03T10:40:41.861Z,39.17
2023-03-03T10:43:39.189Z,37.06
2023-03-03T10:46:34.185Z,37.04
2023-03-03T10:49:41.909Z,36.53
2023-03-03T10:52:42.079Z,35.95
2023-03-03T10:55:30.211Z,36.36
2023-03-03T10:58:33.139Z,36.11
2023-03-03T11:01:46.214Z,35.58
2023-03-03T11:04:34.638Z,36.07
2023-03-03T11:07:29.354Z,36.64
2023-03-03T11:10:26.767Z,37.38
2023-03-03T11:13:04.437Z,37.46
2023-03-03T11:15:56.357Z,37.32
2023-03-03T11:18:49.597Z,34.95
2023-03-03T11:21:31.099Z,34.54
2023-03-03T11:24:06.277Z,34.79
2023-03-03T11:26:54.076Z,34.95
2023-03-03T11:29:41.583Z,34.23
2023-03-03T11:32:43.727Z,34.93
2023-03-03T11:35:37.679Z,36.38
2023-03-03T11:38:24.234Z,36.98
2023-03-03T11:41:16.442Z,37.82
2023-03-03T11:43:53.316Z,39.18
2023-03-03T11:46:38.502Z,38.59
2023-03-03T11:49:13.551Z,38.16
2023-03-03T11:52:03.179Z,38.42
2023-03-03T11:54:45.278Z,38.24
2023-03-03T11:57:25.032Z,36.59
2023-03-03T12:00:12.338Z,34.95
2023-03-03T12:03:02.598Z,35.26
2023-03-03T12:05:40.449Z,35.61
2023-03-03T12:08:17.232Z,36.30
2023-03-03T12:11:23.732Z,37.18
2023-03-03T12:13:52.171Z,37.08
2023-03-03T12:16:39.825Z,37.73
2023-03-03T12:19:44.760Z,37.32
2023-03-03T12:22:34.617Z,37.48
2023-03-03T12:25:15.461Z,36.54
2023-03-03T12:28:05.824Z,35.96
2023-03-03T12:30:59.713Z,35.50
2023-03-03T12:33:53.207Z,35.41
2023-03-03T12:36:44.631Z,35.29
2023-03-03T12:39:35.092Z,34.83
2023-03-03T12:42:47.310Z,34.32
2023-03-03T12:45:56.792Z,35.89
2023-03-03T12:48:35.965Z,37.85
2023-03-03T12:51:32.196Z,37.83
2023-03-03T12:54:39.823Z,38.74
2023-03-03T12:57:27.295Z,38.24
2023-03-03T13:00:05.037Z,36.69
2023-03-03T13:02:45.906Z,36.33
2023-03-03T13:05:35.185Z,36.35
2023-03-03T13:08:31.627Z,36.42
2023-03-03T13:11:31.099Z,35.94
2023-03-03T13:14:16.765Z,36.58
2023-03-03T13:17:04.186Z,36.82
2023-03-03T13:19:41.061Z,35.78
2023-03-03T13:22:40.391Z,35.69
2023-03-03T13:25:20.902Z,36.48
2023-03-03T13:27:53.791Z,37.57
2023-03-03T13:30:34.536Z,37.93
2023-03-03T13:33:11.867Z,38.13
2023-03-03T13:35:54.415Z,38.12
2023-03-03T13:38:28.215Z,38.18
2023-03-03T13:41:25.991Z,38.59
2023-03-03T13:43:57.272Z,39.29
2023-03-03T13:47:11.013Z,39.62
2023-03-03T13:50:06.267Z,39.72
2023-03-03T13:52:44.715Z,39.46
2023-03-03T13:56:03.609Z,39.25
2023-03-03T13:58:45.577Z,38.96
2023-03-03T14:01:32.397Z,39.66
2023-03-03T14:04:16.076Z,40.29
2023-03-03T14:06:52.969Z,40.35
2023-03-03T14:09:44.140Z,40.62
2023-03-03T14:12:32.719Z,40.78
2023-03-03T14:15:28.124Z,40.61
2023-03-03T14:18:14.970Z,40.82
2023-03-03T14:20:55.738Z,40.68
2023-03-03T14:23:23.934Z,40.67
2023-03-03T14:26:04.438Z,41.44
2023-03-03T14:28:45.703Z,42.59
2023-03-03T14:31:26.804Z,43.97
2023-03-03T14:34:02.788Z,44.25
2023-03-03T14:36:40.650Z,44.54
2023-03-03T14:39:35.678Z,44.79
2023-03-03T14:42:30.340Z,44.90
2023-03-03T14:45:01.489Z,45.08
2023-03-03T14:47:30.705Z,45.72
2023-03-03T14:50:03.701Z,45.80
2023-03-03T14:52:34.835Z,46.07
2023-03-03T14:55:35.194Z,46.13
2023-03-03T14:58:04.407Z,46.53
2023-03-03T15:00:36.361Z,46.91
2023-03-03T15:03:24.323Z,47.42
2023-03-03T15:05:56.488Z,47.38
2023-03-03T15:08:37.058Z,47.12
2023-03-03T15:11:18.063Z,47.66
2023-03-03T15:13:46.291Z,47.59
2023-03-03T15:16:24.087Z,47.73
2023-03-03T15:19:01.724Z,47.97
2023-03-03T15:21:37.799Z,47.76
2023-03-03T15:24:41.595Z,47.88
2023-03-03T15:27:29.086Z,48.02
2023-03-03T15:30:14.505Z,48.65
2023-03-03T15:33:27.730Z,48.61
2023-03-03T15:36:14.261Z,48.72
2023-03-03T15:38:59.995Z,49.25
2023-03-03T15:42:06.222Z,48.99
2023-03-03T15:44:53.092Z,49.34
2023-03-03T15:47:41.390Z,49.59
2023-03-03T15:50:21.834Z,49.95
2023-03-03T15:53:20.308Z,49.98
2023-03-03T15:56:11.236Z,50.34
2023-03-03T15:58:48.748Z,50.85
2023-03-03T16:01:59.153Z,50.94
2023-03-03T16:04:36.265Z,51.80
2023-03-03T16:07:17.255Z,51.81
2023-03-03T16:10:07.209Z,52.35
2023-03-03T16:12:38.737Z,52.61
2023-03-03T16:15:36.573Z,53.04
2023-03-03T16:18:10.962Z,53.08
2023-03-03T16:20:48.570Z,53.93
2023-03-03T16:23:31.938Z,54.40
2023-03-03T16:26:38.279Z,54.58
2023-03-03T16:29:35.830Z,55.35
2023-03-03T16:32:29.385Z,55.69
2023-03-03T16:35:26.413Z,55.98
2023-03-03T16:37:58.021Z,57.01
2023-03-03T16:40:38.685Z,56.87
2023-03-03T16:43:39.510Z,57.34
2023-03-03T16:46:24.952Z,57.61
2023-03-03T16:49:08.543Z,58.04
2023-03-03T16:51:49.543Z,58.32
2023-03-03T16:54:35.935Z,58.13
2023-03-03T16:57:23.678Z,58.61
2023-03-03T16:59:52.129Z,59.47
2023-03-03T17:02:53.425Z,59.70
2023-03-03T17:05:51.542Z,59.77
2023-03-03T17:08:50.236Z,60.52
2023-03-03T17:11:18.592Z,60.06
2023-03-03T17:13:56.259Z,60.62
2023-03-03T17:16:52.719Z,61.56
2023-03-03T17:19:37.616Z,61.19
2023-03-03T17:22:43.536Z,62.07
2023-03-03T17:25:18.004Z,62.24
2023-03-03T17:28:02.143Z,62.43
2023-03-03T17:30:53.141Z,62.82
2023-03-03T17:33:32.468Z,63.13
2023-03-03T17:36:29.178Z,63.14
2023-03-03T17:39:29.942Z,63.53
2023-03-03T17:42:34.521Z,63.63
2023-03-03T17:45:09.157Z,64.27
2023-03-03T17:47:55.943Z,64.56
2023-03-03T17:51:10.793Z,64.47
2023-03-03T17:54:04.415Z,64.65
2023-03-03T17:56:51.172Z,65.35
2023-03-03T17:59:25.608Z,65.37
2023-03-03T18:02:03.105Z,65.55
2023-03-03T18:04:37.786Z,65.64
2023-03-03T18:07:37.196Z,65.78
2023-03-03T18:10:30.228Z,65.61
2023-03-03T18:13:26.994Z,66.15
2023-03-03T18:16:28.020Z,66.22
2023-03-03T18:19:08.468Z,66.29
2023-03-03T18:21:50.607Z,66.57
2023-03-03T18:24:36.356Z,66.58
2023-03-03T18:27:29.880Z,66.72
2023-03-03T18:30:17.109Z,66.56
2023-03-03T18:33:08.076Z,67.05
2023-03-03T18:35:45.211Z,67.19
2023-03-03T18:38:16.733Z,67.28
2023-03-03T18:41:25.416Z,67.19
2023-03-03T18:43:57.353Z,67.74
2023-03-03T18:46:25.689Z,67.40
2023-03-03T18:49:01.345Z,67.26
2023-03-03T18:51:50.326Z,67.65
2023-03-03T18:54:21.117Z,67.76
2023-03-03T18:57:03.907Z,67.77
2023-03-03T18:59:35.303Z,67.99
2023-03-03T19:02:09.905Z,67.89
2023-03-03T19:04:42.078Z,67.62
2023-03-03T19:07:16.089Z,67.80
2023-03-03T19:09:52.741Z,68.02
2023-03-03T19:12:42.820Z,67.79
2023-03-03T19:15:30.113Z,68.07
2023-03-03T19:18:27.971Z,67.75
2023-03-03T19:21:06.232Z,68.08
2023-03-03T19:24:00.268Z,68.24
2023-03-03T19:26:40.476Z,68.50
2023-03-03T19:29:32.268Z,67.99
2023-03-03T19:32:26.714Z,68.55
2023-03-03T19:35:09.325Z,68.64
2023-03-03T19:37:43.651Z,68.87
2023-03-03T19:40:16.750Z,68.81
2023-03-03T19:43:06.575Z,68.82
2023-03-03T19:45:37.866Z,68.71
2023-03-03T19:48:21.627Z,69.11
2023-03-03T19:51:12.986Z,69.08
2023-03-03T19:53:53.911Z,69.14
2023-03-03T19:56:25.253Z,69.02
2023-03-03T19:59:26.104Z,69.07
2023-03-03T20:02:18.981Z,69.54
2023-03-03T20:04:54.771Z,69.87
2023-03-03T20:07:52.238Z,69.66
2023-03-03T20:10:38.997Z,69.81
2023-03-03T20:13:21.080Z,69.87
2023-03-03T20:16:12.691Z,69.84
2023-03-03T20:19:02.638Z,69.93
2023-03-03T20:21:40.109Z,69.78
2023-03-03T20:24:31.490Z,70.03
2023-03-03T20:27:14.770Z,69.92
2023-03-03T20:30:02.669Z,70.49
2023-03-03T20:33:07.228Z,70.42
2023-03-03T20:36:14.783Z,70.57
2023-03-03T20:38:54.015Z,70.46
2023-03-03T20:41:39.041Z,70.66
2023-03-03T20:44:30.002Z,70.77
2023-03-03T20:47:40.261Z,70.76
2023-03-03T20:50:30.688Z,70.61
2023-03-03T20:53:14.349Z,70.72
2023-03-03T20:56:01.640Z,70.93
2023-03-03T20:58:51.750Z,71.23
2023-03-03T21:01:32.606Z,71.44
2023-03-03T21:04:19.502Z,71.35
2023-03-03T21:06:48.907Z,71.58
2023-03-03T21:09:35.349Z,71.43
2023-03-03T21:12:25.924Z,71.46
2023-03-03T21:15:11.787Z,71.32
2023-03-03T21:17:40.117Z,71.39
2023-03-03T21:20:32.062Z,71.30
2023-03-03T21:23:02.333Z,71.16
2023-03-03T21:25:56.813Z,71.33
2023-03-03T21:28:34.444Z,71.26
2023-03-03T21:31:10.320Z,71.28
2023-03-03T21:33:50.492Z,71.57
2023-03-03T21:36:24.692Z,71.38
2023-03-03T21:38:54.527Z,71.36
2023-03-03T21:41:23.053Z,71.47
2023-03-03T21:43:53.578Z,71.35
2023-03-03T21:46:24.493Z,71.38
2023-03-03T21:48:52.802Z,71.35
2023-03-03T21:51:21.652Z,71.55
2023-03-03T21:53:49.923Z,71.68
2023-03-03T21:56:18.269Z,71.53
2023-03-03T21:58:46.613Z,71.54
2023-03-03T22:01:14.945Z,71.74
2023-03-03T22:03:45.176Z,71.57
2023-03-03T22:06:13.525Z,71.71
2023-03-03T22:08:41.877Z,71.48
2023-03-03T22:11:10.165Z,71.48
2023-03-03T22:13:40.196Z,71.83
2023-03-03T22:16:08.774Z,71.67
2023-03-03T22:18:37.176Z,71.82
2023-03-03T22:21:06.064Z,71.91
2023-03-03T22:23:34.381Z,71.81
2023-03-03T22:26:02.763Z,71.59
2023-03-03T22:28:33.573Z,72.08
2023-03-03T22:31:01.974Z,72.18
2023-03-03T22:33:30.274Z,71.97
2023-03-03T22:35:58.832Z,72.14
2023-03-03T22:38:27.212Z,72.24
2023-03-03T22:40:55.952Z,72.32
2023-03-03T22:43:25.816Z,72.58
2023-03-03T22:45:54.231Z,72.84
2023-03-03T22:48:24.684Z,72.71
2023-03-03T22:50:53.210Z,72.71
2023-03-03T22:53:22.391Z,72.49
2023-03-03T22:55:51.091Z,72.54
2023-03-03T22:58:20.987Z,72.44
2023-03-03T23:00:49.346Z,72.52
2023-03-03T23:03:17.758Z,72.15
2023-03-03T23:05:50.301Z,72.30
2023-03-03T23:08:21.133Z,72.08
2023-03-03T23:10:49.543Z,72.01
2023-03-03T23:13:17.861Z,72.00
2023-03-03T23:15:46.232Z,72.13
2023-03-03T23:18:14.537Z,71.97
2023-03-03T23:20:46.074Z,71.99
2023-03-03T23:23:14.602Z,72.21
2023-03-03T23:25:42.928Z,72.11
2023-03-03T23:28:11.493Z,72.15
2023-03-03T23:30:39.817Z,72.04
2023-03-03T23:33:08.163Z,71.82
2023-03-03T23:35:36.855Z,71.98
2023-03-03T23:38:05.362Z,71.74
2023-03-03T23:40:33.716Z,71.95
2023-03-03T23:43:02.144Z,72.20
2023-03-03T23:45:30.582Z,72.23
2023-03-03T23:47:59.049Z,71.95
2023-03-03T23:50:27.359Z,71.78
2023-03-03T23:52:55.667Z,71.75
2023-03-03T23:55:24.031Z,71.84
2023-03-03T23:57:52.409Z,72.03
